Notice: Undefined index: language in D:\xampp\htdocs\vam\index.php on line 25
Open Air Virtual

 METAR AND TAF INFORMATION
METAR FOR ESNS
ADDS - METARS form results

(1311 UTC 04 June 2020)
Data provider http://aviationweather.gov/metar/data/
 
METAR text: ESNS 041250Z 08010KT CAVOK 17/03 Q1008
Conditions at: ESNS (SKELLEFTEA AIRPO, SE) observed 1250 UTC 04 June 2020
Temperature: 17.0°C (63°F)
Dewpoint: 3.0°C (37°F) [RH = 39%]
Pressure (altimeter): 29.76 inches Hg (1008.0 mb)
Winds: from the E (80 degrees) at 12 MPH (10 knots; 5.1 m/s)
Visibility: 6 or more miles (10+ km)
Ceiling: ceiling and visibility are OK
Clouds: unknown
Weather: no significant weather observed at this time

METAR text: ESNS 041220Z 08010KT CAVOK 18/04 Q1008
Conditions at: ESNS (SKELLEFTEA AIRPO, SE) observed 1220 UTC 04 June 2020
Temperature: 18.0°C (64°F)
Dewpoint: 4.0°C (39°F) [RH = 39%]
Pressure (altimeter): 29.76 inches Hg (1008.0 mb)
Winds: from the E (80 degrees) at 12 MPH (10 knots; 5.1 m/s)
Visibility: 6 or more miles (10+ km)
Ceiling: ceiling and visibility are OK
Clouds: unknown
Weather: no significant weather observed at this time

Forecast for: ESNS (SKELLEFTEA AIRPO, SE)
Text: TAF ESNS 041130Z 0412/0414 07008KT CAVOK
Forecast period: 1200 to 1400 UTC 04 June 2020
Forecast type: FROM: standard forecast or significant change
Winds: from the ENE (70 degrees) at 9 MPH (8 knots; 4.1 m/s)
Visibility: 6 or more miles 10+ km)
Ceiling: unknown
Clouds: missing
Weather: NSW  (no significant weather)

 AIRPORT MAP

 RUNWAY INFORMATION
Runway 10 Runway length 6890 ft Runway width 148 ft
Runway elevation 157 ft Runway displaced threshold 0 ft Runway heading 106
Runway 28 Runway length 6890 ft Runway width 148 ft
Runway elevation 125 ft Runway displaced threshold 0 ft Runway heading 286

 AIRPORT FREQUENCIES
Type TWR Name TWR Frequency 122.05 MHZ

 AIRPORT NEAR NAVIGATION AIDS
Type VOR-DME Name Skelleftea Frequency 113400 KHZ



Powered by Virtual Airlines Manager [v2.6.2]